C35

Reedsburg Municipal Airport

Reedsburg, Wisconsin, USA
METAR KC35 161215Z AUTO 00000KT 10SM CLR M02/M04 A3007 RMK AO2 T10241039
Observed Flight Rules
Dec-16 @ 12:15 UTC (30 minutes ago) Visual Flight Rules
Visibility Clouds
10 miles
  • Clear skies
Temperatures Readings
Current -2°C / 28°F
Dewpoint -4°C / 25°F
Humidity 86%
Altimeter 30.07" Hg
Pressure 1018 hPa
Elevation 276
METAR KC35 161215Z AUTO 00000KT 10SM CLR M02/M04 A3007 RMK AO2 T10241039
Observed Flight Rules
Dec-16 @ 12:15 UTC
(30 minutes ago)
VFR
Clouds
  • Clear skies
Temperature Dewpoint
-2°C / 28°F -4°C / 25°F
Humidity Altimeter Pressure
86% 30.07" Hg 1018 hPa